Flight Track Log - Related Links

Times and Time Zones

All times are in EDT time to prevent confusion due to time zone crossing. See the UAL3744 flight status page for this flight to view local times or setup timezone preferences in your user account.

Time Position Orientation Groundspeed Altitude Reporting Facility
EDT Latitude Longitude Course Direction KTS MPH feet Rate Location/Type
Sat 06:28:12 PM 38.9333 -77.5500 252° West 207 238 2,800  Level Potomac TRACON
Sat 06:29:12 PM 38.9167 -77.6167 252° West 219 252 5,600 2,530 Climbing Potomac TRACON
Sat 06:29:35 PM 38.9125 -77.6458 260° West 217 250 6,300 1,952 Climbing Washington Center
Sat 06:30:35 PM 38.8944 -77.7281 254° West 214 246 8,300 2,300 Climbing Washington Center
Sat 06:31:35 PM 38.8889 -77.8078 265° West 244 281 10,900 2,800 Climbing Washington Center
Sat 06:32:35 PM 38.8808 -77.9011 264° West 244 281 13,900 2,450 Climbing Washington Center
Sat 06:33:35 PM 38.8728 -77.9861 263° West 244 281 15,800 1,950 Climbing Washington Center
Sat 06:34:35 PM 38.8650 -78.0739 264° West 249 287 17,800 2,050 Climbing Washington Center
Sat 06:35:35 PM 38.8567 -78.1614 263° West 254 292 19,900 1,850 Climbing Washington Center
Sat 06:36:35 PM 38.8528 -78.2519 267° West 254 292 21,500 1,600 Climbing Washington Center
Sat 06:37:35 PM 38.8528 -78.3400 270° West 254 292 23,100 1,550 Climbing Washington Center
Sat 06:38:35 PM 38.8506 -78.4331 268° West 254 292 24,600 1,400 Climbing Washington Center
Sat 06:39:35 PM 38.8506 -78.5292 270° West 259 298 25,900 1,250 Climbing Washington Center
Sat 06:40:35 PM 38.8500 -78.6278 270° West 265 305 27,100 1,200 Climbing Washington Center
Sat 06:41:35 PM 38.8475 -78.7261 268° West 276 318 28,300 1,100 Climbing Washington Center
Sat 06:42:35 PM 38.8469 -78.8275 270° West 276 318 29,300 900 Climbing Washington Center
Sat 06:43:35 PM 38.8444 -78.9181 268° West 281 323 30,100 850 Climbing Washington Center
Sat 06:44:35 PM 38.8433 -79.0325 269° West 287 330 31,000 750 Climbing Washington Center
Sat 06:45:35 PM 38.8403 -79.1392 268° West 292 336 31,600 700 Climbing Washington Center
Sat 06:46:35 PM 38.8286 -79.2450 262° West 303 349 32,400 700 Climbing Washington Center
Sat 06:47:35 PM 38.8108 -79.3533 258° West 309 356 33,000 595 Climbing Washington Center
Sat 06:48:36 PM 38.7908 -79.4589 256° West 314 361 33,600 500 Climbing Washington Center
Sat 06:49:35 PM 38.7769 -79.5622 260° West 314 361 34,000 202 Climbing Washington Center
Sat 06:50:35 PM 38.7564 -79.6756 257° West 320 368 34,000  Level Washington Center
Sat 06:51:35 PM 38.7361 -79.7836 257° West 320 368 34,000  Level Washington Center
Sat 06:52:36 PM 38.7153 -79.8994 257° West 315 362 34,000  Level Washington Center
Sat 06:53:35 PM 38.6947 -80.0047 256° West 315 362 34,000  Level Washington Center
Sat 06:55:35 PM 38.6550 -80.2003 255° West 312 359 34,000  Level Indianapolis Center
Sat 06:56:36 PM 38.6364 -80.3089 258° West 312 359 34,000  Level Indianapolis Center
Sat 06:57:37 PM 38.6153 -80.4133 256° West 305 351 34,000  Level Indianapolis Center
Sat 06:58:38 PM 38.5961 -80.5153 257° West 296 341 34,000  Level Indianapolis Center
Sat 06:59:40 PM 38.5764 -80.6233 257° West 309 356 34,000  Level Indianapolis Center
Sat 07:00:41 PM 38.5544 -80.7358 256° West 323 372 34,000  Level Indianapolis Center
Sat 07:01:42 PM 38.5317 -80.8522 256° West 335 386 34,000  Level Indianapolis Center
Sat 07:02:43 PM 38.5033 -80.9981 256° West 349 402 34,000  Level Indianapolis Center
Sat 07:03:45 PM 38.4794 -81.1203 256° West 353 406 34,000  Level Indianapolis Center
Sat 07:04:46 PM 38.4561 -81.2358 256° West 337 388 34,000  Level Indianapolis Center
Sat 07:05:47 PM 38.4356 -81.3447 256° West 318 366 34,000  Level Indianapolis Center
Sat 07:06:48 PM 38.4139 -81.4494 255° West 306 352 34,000  Level Indianapolis Center
Sat 07:07:49 PM 38.3922 -81.5583 256° West 312 359 34,000  Level Indianapolis Center
Sat 07:08:50 PM 38.3703 -81.6683 256° West 317 365 34,000  Level Indianapolis Center
Sat 07:09:52 PM 38.3475 -81.7775 255° West 318 366 34,000  Level Indianapolis Center
Sat 07:10:53 PM 38.3186 -81.8817 251° West 312 359 34,000  Level Indianapolis Center
Sat 07:11:54 PM 38.2894 -81.9817 250° West 303 349 34,000  Level Indianapolis Center
Sat 07:12:55 PM 38.2619 -82.0819 251° West 301 346 34,000  Level Indianapolis Center
Sat 07:13:56 PM 38.2347 -82.1789 250° West 294 338 34,000  Level Indianapolis Center
Sat 07:14:57 PM 38.2067 -82.2772 250° West 295 339 34,000  Level Indianapolis Center
Sat 07:15:59 PM 38.1775 -82.3797 250° West 308 354 34,000  Level Indianapolis Center
Sat 07:17:00 PM 38.1431 -82.4997 250° West 312 359 34,000  Level Indianapolis Center
Sat 07:18:01 PM 38.1147 -82.6036 251° West 312 359 34,000  Level Indianapolis Center
Sat 07:19:02 PM 38.0847 -82.7022 249° West 304 350 34,000  Level Indianapolis Center
Sat 07:20:03 PM 38.0561 -82.8025 250° West 303 349 34,000  Level Indianapolis Center
Sat 07:21:04 PM 38.0272 -82.9042 250° West 305 351 34,000  Level Indianapolis Center
Sat 07:22:05 PM 37.9967 -83.0050 249° West 305 351 34,000  Level Indianapolis Center
Sat 07:23:07 PM 37.9678 -83.1056 250° West 305 351 34,000  Level Indianapolis Center
Sat 07:24:08 PM 37.9392 -83.2067 250° West 305 351 34,000  Level Indianapolis Center
Sat 07:25:09 PM 37.9044 -83.3228 249° West 303 349 34,000  Level Indianapolis Center
Sat 07:26:10 PM 37.8717 -83.4208 247° West 302 348 34,000  Level Indianapolis Center
Sat 07:27:11 PM 37.8364 -83.5167 245° Southwest 301 346 34,000  Level Indianapolis Center
Sat 07:28:12 PM 37.8017 -83.6144 246° West 304 350 34,000  Level Indianapolis Center
Sat 07:29:13 PM 37.7656 -83.7103 245° Southwest 304 350 34,000  Level Indianapolis Center
Sat 07:30:14 PM 37.7297 -83.8086 245° Southwest 306 352 34,000  Level Indianapolis Center
Sat 07:31:15 PM 37.6936 -83.9081 245° Southwest 309 356 34,000  Level Indianapolis Center
Sat 07:32:16 PM 37.6533 -84.0164 245° Southwest 309 356 34,000  Level Indianapolis Center
Sat 07:33:17 PM 37.6203 -84.1058 245° Southwest 313 360 34,000  Level Indianapolis Center
Sat 07:34:18 PM 37.5836 -84.2056 245° Southwest 314 361 34,000  Level Indianapolis Center
Sat 07:35:19 PM 37.5481 -84.3058 246° West 313 360 34,000  Level Indianapolis Center
Sat 07:36:20 PM 37.5042 -84.4222 245° Southwest 316 364 34,000  Level Indianapolis Center
Sat 07:37:21 PM 37.4672 -84.5225 245° Southwest 316 364 34,000  Level Indianapolis Center
Sat 07:38:21 PM 37.4292 -84.6253 245° Southwest 321 369 34,000  Level Indianapolis Center
Sat 07:39:22 PM 37.3900 -84.7250 244° Southwest 319 367 34,000  Level Indianapolis Center
Sat 07:40:23 PM 37.3522 -84.8275 245° Southwest 322 371 34,000  Level Indianapolis Center
Sat 07:41:24 PM 37.3139 -84.9283 244° Southwest 321 369 34,000  Level Indianapolis Center
Sat 07:42:25 PM 37.2764 -85.0292 245° Southwest 319 367 34,000  Level Indianapolis Center
Sat 07:43:26 PM 37.2367 -85.1311 244° Southwest 323 372 34,000  Level Indianapolis Center
Sat 07:44:27 PM 37.1989 -85.2314 245° Southwest 319 367 34,000  Level Indianapolis Center
Sat 07:45:28 PM 37.1606 -85.3294 244° Southwest 313 360 34,000  Level Indianapolis Center
Sat 07:46:29 PM 37.1225 -85.4286 244° Southwest 314 361 34,000  Level Indianapolis Center
Sat 07:47:30 PM 37.0839 -85.5283 244° Southwest 310 357 34,000  Level Indianapolis Center
Sat 07:48:31 PM 37.0472 -85.6258 245° Southwest 310 357 34,000  Level Indianapolis Center
Sat 07:49:20 PM 37.0136 -85.7142 245° Southwest 312 359 34,000  Level Memphis Center
Sat 07:50:20 PM 36.9736 -85.8128 243° Southwest 312 359 34,000  Level Memphis Center
Sat 07:51:20 PM 36.9356 -85.9136 245° Southwest 312 359 34,000 50 Level Memphis Center
Sat 07:52:20 PM 36.8956 -86.0169 244° Southwest 328 377 34,100 550 Climbing Memphis Center
Sat 07:53:20 PM 36.8553 -86.1175 243° Southwest 328 377 35,100 800 Climbing Memphis Center
Sat 07:54:20 PM 36.8169 -86.2181 245° Southwest 328 377 35,700 450 Climbing Memphis Center
Sat 07:55:20 PM 36.7744 -86.3214 243° Southwest 328 377 36,000 150 Climbing Memphis Center
Sat 07:56:20 PM 36.7358 -86.4192 244° Southwest 328 377 36,000  Level Memphis Center
Sat 07:57:20 PM 36.6953 -86.5219 244° Southwest 328 377 36,000  Level Memphis Center
Sat 07:58:20 PM 36.6586 -86.6167 244° Southwest 328 377 36,000  Level Memphis Center
Sat 07:59:20 PM 36.6200 -86.7142 244° Southwest 328 377 36,000  Level Memphis Center
Sat 08:00:20 PM 36.5811 -86.8117 244° Southwest 328 377 36,000  Level Memphis Center
Sat 08:01:20 PM 36.5461 -86.9011 244° Southwest 323 372 36,000  Level Memphis Center
Sat 08:02:20 PM 36.5069 -86.9983 243° Southwest 331 381 36,000  Level Memphis Center
Sat 08:03:20 PM 36.4661 -87.1006 244° Southwest 326 375 36,000  Level Memphis Center
Sat 08:04:20 PM 36.4247 -87.1975 242° Southwest 326 375 36,000  Level Memphis Center
Sat 08:05:20 PM 36.3833 -87.2972 243° Southwest 331 381 36,000  Level Memphis Center
Sat 08:06:20 PM 36.3422 -87.3992 243° Southwest 331 381 36,000  Level Memphis Center
Sat 08:07:20 PM 36.2986 -87.5011 242° Southwest 331 381 36,000  Level Memphis Center
Sat 08:08:20 PM 36.2592 -87.6003 244° Southwest 331 381 36,000  Level Memphis Center
Sat 08:09:20 PM 36.2156 -87.7047 243° Southwest 331 381 36,000  Level Memphis Center
Sat 08:10:20 PM 36.1761 -87.8064 244° Southwest 331 381 36,000  Level Memphis Center
Sat 08:11:20 PM 36.1342 -87.9053 242° Southwest 331 381 36,000  Level Memphis Center
Sat 08:12:20 PM 36.0906 -88.0144 244° Southwest 325 374 36,000  Level Memphis Center
Sat 08:13:20 PM 36.0486 -88.1108 242° Southwest 325 374 36,000  Level Memphis Center
Sat 08:14:20 PM 36.0103 -88.1939 240° Southwest 325 374 36,000  Level Memphis Center
Sat 08:15:20 PM 35.9703 -88.2897 243° Southwest 320 368 36,000  Level Memphis Center
Sat 08:16:20 PM 35.9303 -88.3831 242° Southwest 320 368 36,000  Level Memphis Center
Sat 08:17:20 PM 35.8900 -88.4789 243° Southwest 320 368 36,000  Level Memphis Center
Sat 08:18:20 PM 35.8497 -88.5744 243° Southwest 320 368 36,000  Level Memphis Center
Sat 08:19:20 PM 35.8072 -88.6703 241° Southwest 320 368 36,000  Level Memphis Center
Sat 08:20:20 PM 35.7689 -88.7683 244° Southwest 320 368 36,000  Level Memphis Center
Sat 08:21:20 PM 35.7264 -88.8636 241° Southwest 320 368 36,000  Level Memphis Center
Sat 08:22:20 PM 35.6836 -88.9614 242° Southwest 320 368 36,000  Level Memphis Center
Sat 08:23:20 PM 35.6389 -89.0694 243° Southwest 320 368 36,000  Level Memphis Center
Sat 08:24:20 PM 35.5981 -89.1672 243° Southwest 328 377 36,000  Level Memphis Center
Sat 08:25:20 PM 35.5575 -89.2672 244° Southwest 328 377 36,000  Level Memphis Center
Sat 08:26:20 PM 35.5144 -89.3647 242° Southwest 328 377 36,000  Level Memphis Center
Sat 08:27:20 PM 35.4692 -89.4647 241° Southwest 328 377 36,000  Level Memphis Center
Sat 08:28:20 PM 35.4283 -89.5619 243° Southwest 323 372 36,000  Level Memphis Center
Sat 08:29:20 PM 35.3872 -89.6592 243° Southwest 329 379 36,000  Level Memphis Center
Sat 08:30:20 PM 35.3478 -89.7436 240° Southwest 324 373 36,000  Level Memphis Center
Sat 08:31:20 PM 35.3067 -89.8381 242° Southwest 324 373 36,000  Level Memphis Center
Sat 08:32:20 PM 35.2653 -89.9325 242° Southwest 324 373 36,000  Level Memphis Center
Sat 08:33:20 PM 35.2258 -90.0242 242° Southwest 318 366 36,000  Level Memphis Center
Sat 08:34:20 PM 35.1844 -90.1183 242° Southwest 313 360 36,000  Level Memphis Center
Sat 08:35:20 PM 35.1428 -90.2097 241° Southwest 313 360 36,000  Level Memphis Center
Sat 08:36:20 PM 35.1033 -90.3011 242° Southwest 313 360 36,000  Level Memphis Center
Sat 08:37:20 PM 35.0636 -90.3925 242° Southwest 313 360 36,000  Level Memphis Center
Sat 08:38:20 PM 35.0219 -90.4814 240° Southwest 313 360 36,000  Level Memphis Center
Sat 08:39:20 PM 34.9800 -90.5750 241° Southwest 313 360 36,000  Level Memphis Center
Sat 08:40:20 PM 34.9319 -90.6789 241° Southwest 313 360 36,000  Level Memphis Center
Sat 08:41:20 PM 34.8878 -90.7747 241° Southwest 318 366 36,000  Level Memphis Center
Sat 08:42:20 PM 34.8456 -90.8733 242° Southwest 330 380 36,000  Level Memphis Center
Sat 08:43:20 PM 34.7994 -90.9692 240° Southwest 330 380 36,000  Level Memphis Center
Sat 08:44:20 PM 34.7550 -91.0650 241° Southwest 324 373 36,000  Level Memphis Center
Sat 08:45:20 PM 34.7128 -91.1556 240° Southwest 324 373 36,000  Level Memphis Center
Sat 08:46:20 PM 34.6642 -91.2458 237° Southwest 324 373 36,000  Level Memphis Center
Sat 08:47:20 PM 34.6175 -91.3339 237° Southwest 318 366 36,000  Level Memphis Center
Sat 08:48:20 PM 34.5711 -91.4189 236° Southwest 313 360 36,000  Level Memphis Center
Sat 08:49:20 PM 34.5244 -91.5067 237° Southwest 308 354 36,000  Level Memphis Center
Sat 08:50:20 PM 34.4861 -91.5817 238° Southwest 303 349 36,000  Level Memphis Center
Sat 08:51:20 PM 34.4392 -91.6692 237° Southwest 303 349 36,000  Level Memphis Center
Sat 08:52:20 PM 34.3861 -91.7614 235° Southwest 296 341 36,000  Level Memphis Center
Sat 08:53:20 PM 34.3392 -91.8489 237° Southwest 302 348 36,000  Level Memphis Center
Sat 08:54:20 PM 34.2900 -91.9358 236° Southwest 312 359 36,000  Level Memphis Center
Sat 08:55:20 PM 34.2389 -92.0306 237° Southwest 323 372 36,000  Level Memphis Center
Sat 08:56:20 PM 34.1894 -92.1200 236° Southwest 328 377 36,000  Level Memphis Center
Sat 08:57:20 PM 34.1381 -92.2142 237° Southwest 328 377 36,000  Level Memphis Center
Sat 08:58:20 PM 34.0886 -92.3058 237° Southwest 328 377 36,000  Level Memphis Center
Sat 08:59:20 PM 34.0414 -92.3978 238° Southwest 328 377 36,000  Level Memphis Center
Sat 09:00:20 PM 33.9939 -92.4892 238° Southwest 328 377 36,000  Level Memphis Center
Sat 09:01:20 PM 33.9422 -92.5781 235° Southwest 328 377 36,000  Level Memphis Center
Sat 09:03:32 PM 33.8331 -92.7728 236° Southwest 326 375 36,000  Level Fort Worth Center
Sat 09:04:32 PM 33.7842 -92.8653 238° Southwest 326 375 36,000  Level Fort Worth Center
Sat 09:05:32 PM 33.7331 -92.9503 234° Southwest 326 375 36,000  Level Fort Worth Center
Sat 09:06:32 PM 33.6842 -93.0403 237° Southwest 326 375 36,000  Level Fort Worth Center
Sat 09:07:32 PM 33.6347 -93.1250 235° Southwest 326 375 36,000  Level Fort Worth Center
Sat 09:08:32 PM 33.5856 -93.2122 236° Southwest 321 369 36,000  Level Fort Worth Center
Sat 09:09:32 PM 33.5342 -93.3019 236° Southwest 321 369 36,000  Level Fort Worth Center
Sat 09:10:32 PM 33.4847 -93.3864 235° Southwest 326 375 36,000  Level Fort Worth Center
Sat 09:11:32 PM 33.4356 -93.4731 236° Southwest 326 375 36,000  Level Fort Worth Center
Sat 09:12:32 PM 33.3858 -93.5600 236° Southwest 321 369 36,000  Level Fort Worth Center
Sat 09:13:32 PM 33.3344 -93.6492 235° Southwest 321 369 36,000  Level Fort Worth Center
Sat 09:14:32 PM 33.2886 -93.7233 234° Southwest 321 369 36,000  Level Fort Worth Center
Sat 09:15:32 PM 33.2369 -93.8122 235° Southwest 321 369 36,000  Level Fort Worth Center
Sat 09:16:32 PM 33.1872 -93.9036 237° Southwest 321 369 36,000  Level Fort Worth Center
Sat 09:17:32 PM 33.1397 -93.9925 237° Southwest 321 369 36,000  Level Fort Worth Center
Sat 09:18:32 PM 33.0878 -94.0786 234° Southwest 321 369 36,000  Level Fort Worth Center
Sat 09:19:32 PM 33.0378 -94.1647 235° Southwest 321 369 36,000  Level Fort Worth Center
Sat 09:20:32 PM 32.9878 -94.2533 236° Southwest 321 369 36,000  Level Fort Worth Center
Sat 09:21:32 PM 32.9378 -94.3392 235° Southwest 321 369 36,000  Level Fort Worth Center
Sat 09:22:32 PM 32.8878 -94.4275 236° Southwest 321 369 36,000  Level Fort Worth Center
Sat 09:23:32 PM 32.8356 -94.5158 235° Southwest 326 375 36,000  Level Fort Worth Center
Sat 09:24:32 PM 32.7833 -94.6014 234° Southwest 326 375 36,000  Level Fort Worth Center
Sat 09:25:32 PM 32.7308 -94.6894 235° Southwest 326 375 36,000  Level Fort Worth Center
Sat 09:26:32 PM 32.6828 -94.7772 237° Southwest 326 375 36,000  Level Fort Worth Center
Sat 09:27:32 PM 32.6281 -94.8678 234° Southwest 331 381 36,000  Level Fort Worth Center
Sat 09:28:32 PM 32.5736 -94.9556 234° Southwest 331 381 36,000  Level Fort Worth Center
Sat 09:29:32 PM 32.5169 -95.0508 235° Southwest 336 387 36,000  Level Fort Worth Center
Sat 09:30:32 PM 32.4744 -95.1331 239° Southwest 336 387 36,000  Level Fort Worth Center
Sat 09:31:32 PM 32.4219 -95.2231 235° Southwest 331 381 36,000  Level Fort Worth Center
Sat 09:32:32 PM 32.3650 -95.3203 235° Southwest 337 388 36,000  Level Fort Worth Center
Sat 09:33:32 PM 32.3103 -95.4100 234° Southwest 344 396 36,000  Level Fort Worth Center
Sat 09:34:32 PM 32.2553 -95.4997 234° Southwest 336 387 36,000  Level Fort Worth Center
Sat 09:35:32 PM 32.2083 -95.5842 237° Southwest 341 392 36,000  Level Fort Worth Center
Sat 09:36:32 PM 32.1492 -95.6761 233° Southwest 334 384 36,000  Level Fort Worth Center
Sat 09:37:32 PM 32.0919 -95.7703 234° Southwest 339 390 36,000  Level Fort Worth Center
Sat 09:38:32 PM 32.0389 -95.8572 234° Southwest 339 390 36,000  Level Fort Worth Center
Sat 09:39:32 PM 31.9836 -95.9486 235° Southwest 345 397 36,000  Level Fort Worth Center
Sat 09:40:32 PM 31.9386 -96.0325 238° Southwest 340 391 36,000  Level Fort Worth Center
Sat 09:41:32 PM 31.8831 -96.1239 234° Southwest 340 391 36,000  Level Fort Worth Center
Sat 09:42:32 PM 31.8278 -96.2103 233° Southwest 340 391 36,000  Level Fort Worth Center
Sat 09:43:32 PM 31.7681 -96.3017 232° Southwest 346 398 36,000  Level Fort Worth Center
Sat 09:44:32 PM 31.7103 -96.3925 233° Southwest 346 398 36,000 -500 Level Fort Worth Center
Sat 09:45:32 PM 31.6525 -96.4958 237° Southwest 351 404 35,000 -1,513 Descending Fort Worth Center
Sat 09:46:31 PM 31.5939 -96.5872 233° Southwest 365 420 33,000 -2,000 Descending Houston Center
Sat 09:47:32 PM 31.5347 -96.6839 234° Southwest 362 417 31,000 -1,967 Descending Houston Center
Sat 09:48:33 PM 31.4736 -96.7819 234° Southwest 368 423 29,000 -1,967 Descending Houston Center
Sat 09:49:34 PM 31.4147 -96.8772 234° Southwest 359 413 27,000 -1,983 Descending Houston Center
Sat 09:50:34 PM 31.3575 -96.9692 234° Southwest 349 402 25,000 -1,983 Descending Houston Center
Sat 09:51:35 PM 31.3033 -97.0558 234° Southwest 331 381 23,000 -1,820 Descending Houston Center
Sat 09:52:36 PM 31.2453 -97.1297 227° Southwest 313 360 21,300 -1,820 Descending Houston Center
Sat 09:53:37 PM 31.1669 -97.1728 205° Southwest 307 353 19,300 -1,918 Descending Houston Center
Sat 09:54:38 PM 31.0917 -97.2131 205° Southwest 298 343 17,400 -1,820 Descending Houston Center
Sat 09:55:39 PM 31.0197 -97.2517 205° Southwest 285 328 15,600 -1,721 Descending Houston Center
Sat 09:56:40 PM 30.9511 -97.2900 206° Southwest 282 325 13,900 -1,289 Descending Houston Center
Sat 09:57:40 PM 30.8767 -97.3344 207° Southwest 254 292 13,000 -446 Descending Houston Center
Sat 09:58:41 PM 30.8144 -97.3808 213° Southwest 256 295 13,000  Level Houston Center
Sat 09:59:42 PM 30.7481 -97.4294 212° Southwest 277 319 13,000 -541 Level Houston Center
Sat 10:00:43 PM 30.6936 -97.4719 214° Southwest 244 281 11,900 -1,328 Descending Houston Center
Sat 10:01:44 PM 30.6428 -97.5136 215° Southwest 227 261 10,300 -1,488 Descending Houston Center
Sat 10:02:44 PM 30.5953 -97.5550 217° Southwest 216 249 8,900 -1,388 Descending Houston Center
Sat 10:03:45 PM 30.5361 -97.5789 199° South 219 252 7,500 -1,475 Descending Houston Center
Sat 10:04:46 PM 30.4756 -97.6044 200° South 225 259 5,900 -1,525 Descending Houston Center
Sat 10:05:47 PM 30.4181 -97.6275 199° South 220 253 4,400 -1,279 Descending Houston Center
Sat 10:06:48 PM 30.3653 -97.6528 202° Southwest 208 239 3,300 -992 Descending Houston Center
Sat 10:07:48 PM 30.3261 -97.6750 206° Southwest 170 196 2,400 -595 Descending Houston Center
Sat 10:08:49 PM 30.2942 -97.6836 193° South 136 157 2,100 -393 Descending Houston Center
Sat 10:09:50 PM 30.2606 -97.6819 178° South 123 142 1,600 -545 Descending Houston Center
Sat 10:10:50 PM 30.2306 -97.6800 177° South 123 142 1,000 -600 Descending Houston Center
Sat 10:12:00 PM 30.1945 -97.6699 190° South  Level Estimated
Sat 10:19:00 PM 30.1945 -97.6699 190° South  Level Estimated

Login

Don't have an account? Register now (free) for customized features, flight alerts, and more!